Time;durP1;ratioP1;P1;durP2;ratioP2;P2;SDS_P1;SDS_P2;PMS_P1;PMS_P2;Temp;Humidity;BMP_temperature;BMP_pressure;BME280_temperature;BME280_humidity;BME280_pressure;Samples;Min_cycle;Max_cycle;Signal;HPM_P1;HPM_P2
2021/07/20 00:02:23;;;;;;;11.73;8.10;;;;;;;;;;5025331;28;20101;-83
2021/07/20 00:04:50;;;;;;;12.50;8.07;;;;;;;;;;5010462;28;20053;-84
2021/07/20 00:07:16;;;;;;;11.60;7.70;;;;;;;;;;5020628;28;20057;-85
2021/07/20 00:09:42;;;;;;;12.52;8.50;;;;;;;;;;5005368;28;20097;-85
2021/07/20 00:12:08;;;;;;;12.10;8.88;;;;;;;;;;5012004;28;20499;-83
2021/07/20 00:14:35;;;;;;;15.13;9.05;;;;;;;;;;5010755;28;20184;-90
2021/07/20 00:17:01;;;;;;;11.05;8.10;;;;;;;;;;5011444;28;20050;-84
2021/07/20 00:19:27;;;;;;;13.38;8.52;;;;;;;;;;5011537;28;20065;-86
2021/07/20 00:21:53;;;;;;;14.30;8.85;;;;;;;;;;5011621;28;20056;-82
2021/07/20 00:24:20;;;;;;;15.18;8.90;;;;;;;;;;5011875;28;20050;-83
2021/07/20 00:26:47;;;;;;;14.23;8.88;;;;;;;;;;5011923;28;20120;-83
2021/07/20 00:29:13;;;;;;;11.65;8.10;;;;;;;;;;5011314;28;20058;-85
2021/07/20 00:31:39;;;;;;;11.68;8.32;;;;;;;;;;5011462;28;20085;-83
2021/07/20 00:34:06;;;;;;;12.07;8.63;;;;;;;;;;5025951;28;20104;-83
2021/07/20 00:36:33;;;;;;;11.48;8.60;;;;;;;;;;5020464;28;20081;-87
2021/07/20 00:38:59;;;;;;;10.63;8.02;;;;;;;;;;5029496;28;20061;-84
2021/07/20 00:41:25;;;;;;;12.40;8.95;;;;;;;;;;5031021;28;20088;-83
2021/07/20 00:43:51;;;;;;;11.88;8.30;;;;;;;;;;5030170;28;20387;-84
2021/07/20 00:46:18;;;;;;;11.35;8.65;;;;;;;;;;5031169;28;20049;-86
2021/07/20 00:48:44;;;;;;;13.60;8.23;;;;;;;;;;5031040;28;20136;-83
2021/07/20 00:51:10;;;;;;;12.20;8.63;;;;;;;;;;5031176;28;20769;-83
2021/07/20 00:53:37;;;;;;;11.85;8.25;;;;;;;;;;5028737;28;20046;-88
2021/07/20 00:56:03;;;;;;;12.23;8.38;;;;;;;;;;5030684;28;20075;-84
2021/07/20 00:58:30;;;;;;;12.40;8.93;;;;;;;;;;5030211;28;20053;-83
2021/07/20 01:00:56;;;;;;;11.15;7.95;;;;;;;;;;5030358;28;20080;-83
2021/07/20 01:03:23;;;;;;;10.48;8.27;;;;;;;;;;5031011;28;20072;-83
2021/07/20 01:05:49;;;;;;;13.30;8.75;;;;;;;;;;5030218;28;20092;-82
2021/07/20 01:08:16;;;;;;;13.35;8.80;;;;;;;;;;4998271;28;20073;-83
2021/07/20 01:10:43;;;;;;;11.30;8.10;;;;;;;;;;4998796;28;20529;-83
2021/07/20 01:13:11;;;;;;;11.02;8.10;;;;;;;;;;5010245;28;20440;-83
2021/07/20 01:15:38;;;;;;;11.00;7.93;;;;;;;;;;5010176;28;20057;-86
2021/07/20 01:18:05;;;;;;;10.90;7.75;;;;;;;;;;5010422;28;20085;-84
2021/07/20 01:20:32;;;;;;;13.20;8.65;;;;;;;;;;5010784;28;20046;-83
2021/07/20 01:23:11;;;;;;;14.07;8.25;;;;;;;;;;5010340;28;20054;-83
2021/07/20 01:25:38;;;;;;;12.68;8.40;;;;;;;;;;5011944;28;22702;-85
2021/07/20 01:28:08;;;;;;;11.73;8.13;;;;;;;;;;5020132;28;20134;-83
2021/07/20 01:30:36;;;;;;;13.02;8.63;;;;;;;;;;5010326;28;20049;-89
2021/07/20 01:33:04;;;;;;;11.35;8.32;;;;;;;;;;5024414;28;20052;-84
2021/07/20 01:35:31;;;;;;;12.32;8.80;;;;;;;;;;5018423;28;20046;-84
2021/07/20 01:37:58;;;;;;;11.30;8.45;;;;;;;;;;5009839;28;21033;-84
2021/07/20 01:40:25;;;;;;;12.35;8.65;;;;;;;;;;5008998;28;20045;-86
2021/07/20 01:42:51;;;;;;;12.27;8.43;;;;;;;;;;5009922;28;20046;-83
2021/07/20 01:45:18;;;;;;;12.20;8.93;;;;;;;;;;5010562;28;20057;-85
2021/07/20 01:47:45;;;;;;;14.77;9.43;;;;;;;;;;5009403;28;20080;-84
2021/07/20 01:50:12;;;;;;;11.35;8.68;;;;;;;;;;5017895;28;20049;-84
2021/07/20 01:52:39;;;;;;;12.00;9.05;;;;;;;;;;5013775;28;20166;-87
2021/07/20 01:55:05;;;;;;;13.50;9.50;;;;;;;;;;5023513;28;20057;-84
2021/07/20 01:57:31;;;;;;;13.40;9.23;;;;;;;;;;5014477;28;20050;-84
2021/07/20 01:59:59;;;;;;;14.13;9.77;;;;;;;;;;5006873;28;20085;-85
2021/07/20 02:03:13;;;;;;;13.98;9.45;;;;;;;;;;4999716;28;20046;-83
2021/07/20 02:10:49;;;;;;;13.45;9.75;;;;;;;;;;5008961;28;20050;-83
2021/07/20 02:13:16;;;;;;;14.73;9.80;;;;;;;;;;5021578;28;20415;-83
2021/07/20 02:15:44;;;;;;;13.48;9.18;;;;;;;;;;5029160;28;20049;-85
2021/07/20 02:18:10;;;;;;;16.35;10.15;;;;;;;;;;5029648;28;20391;-83
2021/07/20 02:20:42;;;;;;;14.15;9.93;;;;;;;;;;5029242;28;20049;-88
2021/07/20 02:23:08;;;;;;;14.32;9.82;;;;;;;;;;5029547;28;20080;-83
2021/07/20 02:25:36;;;;;;;13.00;9.23;;;;;;;;;;5029002;28;20428;-87
2021/07/20 02:28:06;;;;;;;12.32;8.98;;;;;;;;;;5029101;28;20065;-84
2021/07/20 02:30:32;;;;;;;13.93;9.40;;;;;;;;;;5027047;28;20804;-83
2021/07/20 02:33:06;;;;;;;15.98;9.77;;;;;;;;;;5028801;28;20045;-84
2021/07/20 02:35:33;;;;;;;13.55;9.05;;;;;;;;;;5029019;28;20057;-83
2021/07/20 02:38:01;;;;;;;14.93;9.23;;;;;;;;;;5028985;28;20099;-83
2021/07/20 02:40:28;;;;;;;13.75;9.27;;;;;;;;;;5029029;28;20049;-83
2021/07/20 02:42:56;;;;;;;13.05;9.45;;;;;;;;;;5024419;28;20072;-84
2021/07/20 02:45:23;;;;;;;13.93;9.52;;;;;;;;;;5041231;28;20054;-83
2021/07/20 02:47:50;;;;;;;15.52;9.60;;;;;;;;;;4993121;28;20054;-81
2021/07/20 02:50:17;;;;;;;13.57;9.20;;;;;;;;;;5015208;28;20057;-84
2021/07/20 02:52:45;;;;;;;13.82;9.13;;;;;;;;;;5008735;28;20050;-83
2021/07/20 02:55:12;;;;;;;12.48;8.73;;;;;;;;;;5009490;28;20052;-84
2021/07/20 02:57:38;;;;;;;13.52;8.60;;;;;;;;;;5006332;28;20050;-88
2021/07/20 03:00:11;;;;;;;13.00;8.82;;;;;;;;;;5007398;28;20046;-84
2021/07/20 03:02:38;;;;;;;13.50;9.45;;;;;;;;;;5025692;28;20054;-89
2021/07/20 03:05:07;;;;;;;13.75;9.10;;;;;;;;;;5019351;28;20593;-83
2021/07/20 03:07:34;;;;;;;13.55;9.13;;;;;;;;;;5023076;28;20045;-83
2021/07/20 03:10:01;;;;;;;12.68;8.85;;;;;;;;;;5010216;28;20074;-84
2021/07/20 03:12:29;;;;;;;12.82;8.45;;;;;;;;;;5006618;28;20142;-83
2021/07/20 03:14:56;;;;;;;12.75;8.68;;;;;;;;;;5008628;28;20053;-83
2021/07/20 03:17:23;;;;;;;12.65;8.85;;;;;;;;;;5009102;28;20482;-83
2021/07/20 03:19:51;;;;;;;12.07;8.82;;;;;;;;;;5009760;28;20046;-85
2021/07/20 03:22:17;;;;;;;12.15;8.35;;;;;;;;;;5009213;28;20054;-83
2021/07/20 03:24:45;;;;;;;12.07;8.13;;;;;;;;;;5008180;28;20496;-85
2021/07/20 03:27:11;;;;;;;13.73;9.15;;;;;;;;;;5008905;28;20512;-84
2021/07/20 03:29:42;;;;;;;14.57;8.93;;;;;;;;;;5008321;28;20054;-89
2021/07/20 03:32:10;;;;;;;13.05;9.15;;;;;;;;;;5007721;28;20675;-83
2021/07/20 03:34:36;;;;;;;12.57;9.40;;;;;;;;;;5008354;28;20468;-89
2021/07/20 03:37:04;;;;;;;12.50;8.98;;;;;;;;;;5008414;28;20570;-84
2021/07/20 03:39:30;;;;;;;12.90;9.55;;;;;;;;;;5011637;28;20115;-84
2021/07/20 03:41:56;;;;;;;14.05;9.35;;;;;;;;;;5008273;28;20049;-87
2021/07/20 03:44:23;;;;;;;12.38;8.93;;;;;;;;;;5008401;28;20133;-83
2021/07/20 03:46:49;;;;;;;13.52;9.25;;;;;;;;;;5007964;28;20064;-84
2021/07/20 03:49:15;;;;;;;13.65;9.13;;;;;;;;;;5009114;28;20060;-83
2021/07/20 03:51:42;;;;;;;13.35;9.57;;;;;;;;;;5008211;28;20077;-84
2021/07/20 03:54:09;;;;;;;15.32;9.63;;;;;;;;;;5008108;28;20058;-84
2021/07/20 03:56:36;;;;;;;14.82;10.13;;;;;;;;;;5008400;28;20411;-84
2021/07/20 03:59:08;;;;;;;14.02;9.45;;;;;;;;;;5003121;28;20117;-83
2021/07/20 04:01:36;;;;;;;14.23;9.68;;;;;;;;;;4989001;28;20061;-85
2021/07/20 04:04:02;;;;;;;12.98;8.73;;;;;;;;;;5004105;28;20061;-83
2021/07/20 04:06:29;;;;;;;14.38;9.65;;;;;;;;;;5008061;28;20073;-83
2021/07/20 04:08:56;;;;;;;23.98;12.73;;;;;;;;;;5007488;28;20054;-83
2021/07/20 04:11:22;;;;;;;15.52;9.23;;;;;;;;;;5008645;28;20104;-83
2021/07/20 04:13:49;;;;;;;14.23;9.07;;;;;;;;;;5007580;28;20502;-84
2021/07/20 04:16:16;;;;;;;14.18;8.82;;;;;;;;;;5016634;28;20061;-83
2021/07/20 04:18:43;;;;;;;13.13;9.00;;;;;;;;;;5007623;28;20049;-84
2021/07/20 04:21:09;;;;;;;12.75;9.18;;;;;;;;;;5008090;28;20069;-83
2021/07/20 04:23:36;;;;;;;13.45;9.00;;;;;;;;;;5007689;28;20058;-84
2021/07/20 04:26:03;;;;;;;17.33;9.52;;;;;;;;;;5007791;28;20057;-83
2021/07/20 04:28:30;;;;;;;14.48;9.90;;;;;;;;;;5008025;28;20049;-84
2021/07/20 04:31:00;;;;;;;14.32;9.70;;;;;;;;;;5007696;28;20054;-83
2021/07/20 04:33:28;;;;;;;12.82;9.27;;;;;;;;;;5010103;28;20050;-84
2021/07/20 04:35:58;;;;;;;14.65;10.40;;;;;;;;;;5011514;28;20060;-84
2021/07/20 04:38:25;;;;;;;15.23;10.32;;;;;;;;;;5011539;28;20054;-84
2021/07/20 04:40:52;;;;;;;15.02;9.68;;;;;;;;;;5038790;28;20108;-83
2021/07/20 04:43:19;;;;;;;14.40;9.77;;;;;;;;;;5011851;28;20514;-84
2021/07/20 04:45:46;;;;;;;14.23;10.13;;;;;;;;;;5011479;28;20064;-84
2021/07/20 04:48:16;;;;;;;18.63;10.80;;;;;;;;;;5011198;28;20045;-84
2021/07/20 04:50:42;;;;;;;18.73;10.90;;;;;;;;;;5009534;28;20406;-87
2021/07/20 04:53:12;;;;;;;20.77;11.88;;;;;;;;;;5011302;28;20499;-84
2021/07/20 04:55:40;;;;;;;15.10;10.20;;;;;;;;;;5011414;28;20154;-89
2021/07/20 04:58:06;;;;;;;16.63;11.45;;;;;;;;;;5011014;28;20050;-85
2021/07/20 05:00:33;;;;;;;21.75;12.50;;;;;;;;;;5010983;28;20060;-84
2021/07/20 05:03:01;;;;;;;23.67;12.13;;;;;;;;;;5010388;28;20111;-84
2021/07/20 05:05:27;;;;;;;24.33;11.77;;;;;;;;;;5011375;28;20507;-84
2021/07/20 05:07:54;;;;;;;20.55;12.45;;;;;;;;;;5009832;28;20119;-84
2021/07/20 05:10:21;;;;;;;20.30;11.75;;;;;;;;;;5022252;28;20499;-82
2021/07/20 05:12:48;;;;;;;19.90;11.45;;;;;;;;;;5005304;28;20484;-84
2021/07/20 05:15:15;;;;;;;17.65;10.90;;;;;;;;;;5030572;28;20415;-84
2021/07/20 05:17:41;;;;;;;22.05;11.60;;;;;;;;;;5030664;28;20115;-87
2021/07/20 05:20:08;;;;;;;20.02;11.50;;;;;;;;;;5028172;28;20053;-84
2021/07/20 05:22:35;;;;;;;17.23;10.77;;;;;;;;;;5030925;28;20744;-84
2021/07/20 05:25:02;;;;;;;14.68;10.52;;;;;;;;;;5028971;28;20049;-84
2021/07/20 05:27:30;;;;;;;15.73;10.57;;;;;;;;;;5029535;28;20049;-84
2021/07/20 05:29:57;;;;;;;18.95;11.23;;;;;;;;;;5029946;28;20053;-84
2021/07/20 05:32:25;;;;;;;16.35;10.05;;;;;;;;;;5025619;28;20054;-84
2021/07/20 05:34:51;;;;;;;15.00;9.77;;;;;;;;;;5022392;28;20077;-84
2021/07/20 05:37:18;;;;;;;15.85;10.30;;;;;;;;;;5026346;28;20054;-84
2021/07/20 05:39:45;;;;;;;13.90;9.77;;;;;;;;;;5010069;28;20119;-85
2021/07/20 05:42:11;;;;;;;20.17;10.55;;;;;;;;;;5030390;28;20423;-85
2021/07/20 05:44:37;;;;;;;17.85;10.60;;;;;;;;;;5028736;28;20057;-85
2021/07/20 05:47:04;;;;;;;18.20;11.05;;;;;;;;;;5029739;28;20053;-85
2021/07/20 05:49:32;;;;;;;17.08;11.07;;;;;;;;;;5029439;28;20120;-84
2021/07/20 05:51:59;;;;;;;18.73;9.73;;;;;;;;;;5029945;28;20056;-84
2021/07/20 05:54:25;;;;;;;16.17;11.50;;;;;;;;;;5029218;28;20412;-85
2021/07/20 05:56:51;;;;;;;15.82;10.98;;;;;;;;;;5024912;28;20487;-83
2021/07/20 05:59:19;;;;;;;15.77;11.52;;;;;;;;;;5010729;28;20049;-87
2021/07/20 06:01:45;;;;;;;15.85;11.63;;;;;;;;;;5028666;28;20117;-86
2021/07/20 06:04:12;;;;;;;20.23;11.23;;;;;;;;;;5029645;28;20045;-85
2021/07/20 06:06:38;;;;;;;15.88;11.35;;;;;;;;;;5027115;28;20099;-84
2021/07/20 06:09:06;;;;;;;17.90;10.40;;;;;;;;;;5009334;28;20408;-85
2021/07/20 06:11:34;;;;;;;14.32;9.52;;;;;;;;;;5009800;28;20045;-85
2021/07/20 06:14:01;;;;;;;15.23;8.75;;;;;;;;;;5008894;28;20649;-85
2021/07/20 06:16:28;;;;;;;13.15;8.82;;;;;;;;;;5005299;28;20408;-84
2021/07/20 06:18:54;;;;;;;13.65;9.07;;;;;;;;;;4989779;28;20061;-84
2021/07/20 06:21:22;;;;;;;14.63;9.27;;;;;;;;;;5005888;28;20060;-88
2021/07/20 06:23:49;;;;;;;14.75;9.52;;;;;;;;;;5030850;28;20057;-82
2021/07/20 06:26:17;;;;;;;16.05;9.32;;;;;;;;;;5024850;28;20770;-82
2021/07/20 06:28:43;;;;;;;15.07;9.45;;;;;;;;;;5011060;28;20472;-83
2021/07/20 06:31:10;;;;;;;13.85;8.85;;;;;;;;;;5035635;28;20052;-82
2021/07/20 06:33:38;;;;;;;14.68;9.05;;;;;;;;;;5030315;28;20053;-82
2021/07/20 06:36:05;;;;;;;10.85;7.93;;;;;;;;;;5030812;28;20132;-82
2021/07/20 06:38:32;;;;;;;13.05;9.02;;;;;;;;;;5030319;28;20076;-82
2021/07/20 06:40:59;;;;;;;13.75;9.07;;;;;;;;;;5030489;28;20053;-82
2021/07/20 06:43:25;;;;;;;11.90;8.35;;;;;;;;;;5029323;28;20132;-82
2021/07/20 06:45:52;;;;;;;11.32;8.90;;;;;;;;;;5030879;28;20085;-82
2021/07/20 06:48:21;;;;;;;10.32;7.50;;;;;;;;;;5031244;28;20063;-82
2021/07/20 06:54:10;;;;;;;9.93;6.95;;;;;;;;;;5019414;28;20047;-83
2021/07/20 06:56:39;;;;;;;10.13;6.82;;;;;;;;;;5050431;28;20117;-82
2021/07/20 06:59:06;;;;;;;9.25;6.43;;;;;;;;;;5050664;28;20052;-82
2021/07/20 07:01:52;;;;;;;7.63;5.95;;;;;;;;;;5049814;28;20103;-81
2021/07/20 07:04:34;;;;;;;8.43;6.13;;;;;;;;;;5033397;28;20049;-83
2021/07/20 07:07:00;;;;;;;9.00;6.38;;;;;;;;;;5020325;28;20057;-83
2021/07/20 07:09:31;;;;;;;8.07;6.35;;;;;;;;;;5029446;28;20058;-83
2021/07/20 07:11:58;;;;;;;9.32;6.72;;;;;;;;;;5028372;28;20057;-84
2021/07/20 07:14:25;;;;;;;8.23;5.82;;;;;;;;;;5026844;28;20052;-88
2021/07/20 07:16:53;;;;;;;8.15;6.40;;;;;;;;;;5028172;28;20088;-84
2021/07/20 07:19:21;;;;;;;7.85;6.43;;;;;;;;;;5028725;28;20076;-84
2021/07/20 07:21:48;;;;;;;8.05;5.88;;;;;;;;;;5027280;28;20053;-84
2021/07/20 07:24:15;;;;;;;8.88;6.28;;;;;;;;;;5037054;28;20068;-82
2021/07/20 07:26:42;;;;;;;9.00;6.05;;;;;;;;;;5033964;28;20383;-81
2021/07/20 07:29:14;;;;;;;8.88;6.07;;;;;;;;;;5029278;28;20046;-81
2021/07/20 07:31:40;;;;;;;8.48;5.75;;;;;;;;;;5018990;28;20062;-81
2021/07/20 07:34:25;;;;;;;8.32;6.20;;;;;;;;;;5010105;28;20133;-80
2021/07/20 07:36:52;;;;;;;7.90;6.15;;;;;;;;;;5027423;28;20041;-81
2021/07/20 07:39:20;;;;;;;9.13;5.80;;;;;;;;;;5032811;28;20057;-82
2021/07/20 07:41:46;;;;;;;8.07;5.80;;;;;;;;;;5032095;28;20057;-85
2021/07/20 07:44:14;;;;;;;9.35;5.85;;;;;;;;;;5024576;28;20066;-81
2021/07/20 07:46:41;;;;;;;9.80;6.13;;;;;;;;;;5017813;28;20119;-82
2021/07/20 07:49:11;;;;;;;8.15;5.97;;;;;;;;;;5018358;28;20045;-83
2021/07/20 07:51:39;;;;;;;9.18;6.15;;;;;;;;;;5011570;28;20053;-84
2021/07/20 07:54:05;;;;;;;9.15;5.15;;;;;;;;;;5018976;28;20057;-80
2021/07/20 07:56:32;;;;;;;10.02;5.85;;;;;;;;;;5021610;28;20041;-80
2021/07/20 07:58:59;;;;;;;8.55;5.93;;;;;;;;;;5021471;28;20077;-80
2021/07/20 08:01:26;;;;;;;8.07;6.10;;;;;;;;;;5022997;28;20132;-82
2021/07/20 08:03:54;;;;;;;7.18;5.50;;;;;;;;;;5022251;28;20495;-85
2021/07/20 08:06:21;;;;;;;6.70;5.55;;;;;;;;;;5008765;28;20060;-79
2021/07/20 08:08:49;;;;;;;9.20;5.80;;;;;;;;;;5029832;28;20649;-88
2021/07/20 08:11:15;;;;;;;7.78;6.13;;;;;;;;;;5023882;28;20049;-80
2021/07/20 08:13:43;;;;;;;8.73;6.05;;;;;;;;;;5027140;28;20057;-84
2021/07/20 08:16:10;;;;;;;8.60;6.03;;;;;;;;;;5024024;28;20056;-82
2021/07/20 08:18:36;;;;;;;7.82;6.30;;;;;;;;;;5020456;28;20046;-80
2021/07/20 08:21:05;;;;;;;6.80;5.50;;;;;;;;;;5010025;28;20050;-82
2021/07/20 08:23:32;;;;;;;7.55;5.82;;;;;;;;;;5011785;28;20056;-80
2021/07/20 08:26:00;;;;;;;7.88;5.75;;;;;;;;;;5004527;28;20057;-80
2021/07/20 08:28:29;;;;;;;7.63;5.70;;;;;;;;;;4996086;28;20073;-81
2021/07/20 08:30:57;;;;;;;8.07;5.85;;;;;;;;;;5004794;28;20060;-81
2021/07/20 08:33:24;;;;;;;8.45;5.82;;;;;;;;;;5027099;28;20041;-83
2021/07/20 08:35:53;;;;;;;7.07;5.55;;;;;;;;;;5022441;28;20076;-79
2021/07/20 08:38:21;;;;;;;7.93;6.20;;;;;;;;;;5022800;28;20076;-79
2021/07/20 08:40:51;;;;;;;7.18;5.60;;;;;;;;;;5019059;28;20062;-87
2021/07/20 08:43:36;;;;;;;7.95;6.07;;;;;;;;;;5001922;28;20058;-78
2021/07/20 08:46:02;;;;;;;7.55;5.25;;;;;;;;;;4999001;28;20523;-80
2021/07/20 08:48:34;;;;;;;10.73;5.97;;;;;;;;;;5028398;28;20044;-82
2021/07/20 08:51:02;;;;;;;8.32;6.07;;;;;;;;;;5022958;28;20061;-82
2021/07/20 08:53:47;;;;;;;30.67;7.45;;;;;;;;;;5030515;28;20049;-81
2021/07/20 08:56:16;;;;;;;6.50;4.95;;;;;;;;;;5026428;28;20045;-81
2021/07/20 08:58:51;;;;;;;7.50;5.50;;;;;;;;;;5022079;28;20103;-82
2021/07/20 09:01:23;;;;;;;7.30;5.28;;;;;;;;;;5008737;28;20058;-83
2021/07/20 09:04:00;;;;;;;7.03;5.88;;;;;;;;;;5009524;28;20249;-86
2021/07/20 09:06:26;;;;;;;8.07;5.40;;;;;;;;;;5013202;28;20133;-84
2021/07/20 09:08:54;;;;;;;6.82;5.43;;;;;;;;;;5005578;28;20045;-81
2021/07/20 09:11:20;;;;;;;6.50;5.30;;;;;;;;;;5024921;28;20126;-78
2021/07/20 09:13:53;;;;;;;6.13;4.82;;;;;;;;;;5009956;28;20073;-87
2021/07/20 09:16:29;;;;;;;6.75;4.75;;;;;;;;;;5024998;28;20135;-81
2021/07/20 09:19:01;;;;;;;6.45;4.90;;;;;;;;;;5006161;28;20065;-82
2021/07/20 09:21:30;;;;;;;6.32;4.70;;;;;;;;;;5007422;28;20065;-83
2021/07/20 09:24:34;;;;;;;5.78;4.78;;;;;;;;;;5006352;28;20061;-83
2021/07/20 09:27:08;;;;;;;6.97;4.97;;;;;;;;;;4971412;28;20134;-84
2021/07/20 09:29:36;;;;;;;6.82;5.38;;;;;;;;;;4987291;28;20383;-83
2021/07/20 09:32:06;;;;;;;6.07;4.68;;;;;;;;;;4987191;28;20074;-83
2021/07/20 09:35:10;;;;;;;5.97;4.93;;;;;;;;;;4987896;28;20062;-83
2021/07/20 09:37:40;;;;;;;5.88;4.80;;;;;;;;;;4920399;29;20129;-83
2021/07/20 09:40:06;;;;;;;5.85;4.20;;;;;;;;;;4929378;29;20044;-83
2021/07/20 09:42:51;;;;;;;6.63;4.90;;;;;;;;;;4937157;28;20056;-82
2021/07/20 09:45:19;;;;;;;5.35;4.63;;;;;;;;;;4930812;29;20055;-83
2021/07/20 09:48:13;;;;;;;6.03;4.45;;;;;;;;;;4923138;29;20107;-89
2021/07/20 09:50:43;;;;;;;4.82;3.92;;;;;;;;;;4912184;29;20060;-83
2021/07/20 09:53:28;;;;;;;6.18;4.20;;;;;;;;;;4928823;29;20055;-82
2021/07/20 09:56:03;;;;;;;5.82;4.85;;;;;;;;;;4928048;29;20071;-81
2021/07/20 09:58:29;;;;;;;5.57;4.38;;;;;;;;;;4959993;28;20393;-82
2021/07/20 10:01:17;;;;;;;5.53;4.10;;;;;;;;;;4967308;28;20050;-81
2021/07/20 10:03:50;;;;;;;6.85;4.88;;;;;;;;;;4968019;28;20130;-81
2021/07/20 10:06:38;;;;;;;6.30;4.20;;;;;;;;;;4968014;28;20519;-81
2021/07/20 10:09:06;;;;;;;5.18;4.57;;;;;;;;;;4987372;28;20069;-82
2021/07/20 10:11:35;;;;;;;5.20;4.20;;;;;;;;;;5009459;28;20046;-81
2021/07/20 10:14:06;;;;;;;6.15;4.50;;;;;;;;;;5008305;28;20077;-82
2021/07/20 10:16:52;;;;;;;6.75;4.40;;;;;;;;;;5009549;28;20057;-82
2021/07/20 10:19:30;;;;;;;5.20;3.78;;;;;;;;;;5012937;28;20049;-82
2021/07/20 10:21:59;;;;;;;5.82;3.90;;;;;;;;;;5006534;28;20077;-81
2021/07/20 10:24:27;;;;;;;6.15;4.20;;;;;;;;;;5009531;28;20082;-81
2021/07/20 10:27:13;;;;;;;7.90;4.20;;;;;;;;;;5020252;28;20057;-80
2021/07/20 10:29:48;;;;;;;4.38;3.97;;;;;;;;;;5010209;28;20092;-81
2021/07/20 10:32:33;;;;;;;4.90;3.90;;;;;;;;;;5008679;28;20470;-82
2021/07/20 10:35:03;;;;;;;5.47;4.25;;;;;;;;;;5002310;28;20373;-81
2021/07/20 10:37:32;;;;;;;5.38;4.13;;;;;;;;;;5009495;28;20158;-81
2021/07/20 10:40:06;;;;;;;4.53;3.75;;;;;;;;;;4997548;28;20423;-81
2021/07/20 10:42:40;;;;;;;4.95;4.15;;;;;;;;;;4996035;28;20050;-81
2021/07/20 10:45:10;;;;;;;4.78;4.25;;;;;;;;;;5007481;28;20058;-82
2021/07/20 10:47:39;;;;;;;5.25;4.20;;;;;;;;;;5008460;28;20056;-81
2021/07/20 10:50:06;;;;;;;6.57;4.60;;;;;;;;;;5008135;28;20176;-80
2021/07/20 10:52:40;;;;;;;5.10;3.97;;;;;;;;;;5007211;28;20142;-81
2021/07/20 10:55:06;;;;;;;;;;;;;;;;;;5008872;28;20091;-81
2021/07/20 10:57:36;;;;;;;4.93;4.30;;;;;;;;;;5008982;28;19929;-82
2021/07/20 11:00:08;;;;;;;6.07;4.47;;;;;;;;;;5016609;28;20141;-81
2021/07/20 11:02:53;;;;;;;5.70;4.15;;;;;;;;;;5017438;28;20518;-79
2021/07/20 11:05:19;;;;;;;4.97;4.18;;;;;;;;;;5016458;28;20049;-82
2021/07/20 11:07:50;;;;;;;6.38;4.50;;;;;;;;;;5024340;28;20056;-81
2021/07/20 11:10:19;;;;;;;5.25;4.20;;;;;;;;;;5028430;28;20053;-82
2021/07/20 11:12:48;;;;;;;6.00;4.35;;;;;;;;;;5027203;28;20112;-82
2021/07/20 11:15:14;;;;;;;4.78;3.92;;;;;;;;;;5027676;28;20123;-81
2021/07/20 11:17:43;;;;;;;5.70;4.00;;;;;;;;;;5027980;28;20139;-82
2021/07/20 11:20:11;;;;;;;5.05;4.30;;;;;;;;;;5010700;28;20050;-81
2021/07/20 11:22:38;;;;;;;4.88;3.88;;;;;;;;;;5007131;28;20120;-82
2021/07/20 11:25:05;;;;;;;4.80;4.30;;;;;;;;;;5008464;28;20129;-82
2021/07/20 11:27:32;;;;;;;5.28;4.18;;;;;;;;;;5008329;28;20054;-82
2021/07/20 11:29:58;;;;;;;5.28;4.25;;;;;;;;;;5007699;28;20078;-82
2021/07/20 11:32:27;;;;;;;5.25;4.10;;;;;;;;;;5019020;28;20053;-81
2021/07/20 11:34:56;;;;;;;5.28;3.90;;;;;;;;;;5007132;28;20133;-80
2021/07/20 11:37:28;;;;;;;5.20;4.07;;;;;;;;;;5007172;28;20085;-80
2021/07/20 11:40:02;;;;;;;5.78;4.28;;;;;;;;;;4991262;28;20058;-82
2021/07/20 11:42:35;;;;;;;5.03;4.10;;;;;;;;;;4991757;28;20496;-82
2021/07/20 11:45:03;;;;;;;6.22;4.82;;;;;;;;;;5023916;28;20055;-82
2021/07/20 11:47:51;;;;;;;5.53;4.30;;;;;;;;;;4992205;28;20406;-81
2021/07/20 11:50:28;;;;;;;6.00;4.28;;;;;;;;;;4992450;28;20054;-81
2021/07/20 11:53:01;;;;;;;6.28;4.20;;;;;;;;;;5023899;28;20111;-89
2021/07/20 11:55:28;;;;;;;5.35;4.20;;;;;;;;;;5013184;28;20155;-81
2021/07/20 11:58:00;;;;;;;5.78;4.78;;;;;;;;;;5017320;28;20061;-82
2021/07/20 12:00:29;;;;;;;15.43;5.13;;;;;;;;;;5025676;28;20093;-82
2021/07/20 12:02:55;;;;;;;8.48;4.97;;;;;;;;;;5020753;28;20160;-81
2021/07/20 12:05:22;;;;;;;5.85;4.43;;;;;;;;;;5007882;28;20057;-88
2021/07/20 12:08:01;;;;;;;6.65;4.53;;;;;;;;;;5004493;28;20057;-79
2021/07/20 12:10:35;;;;;;;6.07;4.65;;;;;;;;;;4990204;28;20495;-85
2021/07/20 12:13:06;;;;;;;4.60;4.05;;;;;;;;;;5008251;28;20133;-84
2021/07/20 12:15:33;;;;;;;6.85;4.90;;;;;;;;;;5014210;28;20054;-84
2021/07/20 12:18:01;;;;;;;6.13;4.63;;;;;;;;;;5006064;28;20446;-84
2021/07/20 12:20:27;;;;;;;5.05;4.47;;;;;;;;;;4999002;28;20476;-83
2021/07/20 12:22:54;;;;;;;5.88;4.97;;;;;;;;;;5004168;28;20055;-87
2021/07/20 12:25:21;;;;;;;5.30;4.20;;;;;;;;;;4989322;28;20082;-83
2021/07/20 12:27:49;;;;;;;6.10;5.13;;;;;;;;;;5011554;28;20565;-85
2021/07/20 12:30:16;;;;;;;6.15;4.70;;;;;;;;;;5028522;28;20095;-85
2021/07/20 12:32:42;;;;;;;9.45;5.15;;;;;;;;;;5029170;28;20145;-85
2021/07/20 12:35:12;;;;;;;6.60;4.65;;;;;;;;;;5027961;28;20049;-83
2021/07/20 12:37:39;;;;;;;6.25;4.63;;;;;;;;;;5025678;28;20785;-84
2021/07/20 12:40:09;;;;;;;5.95;4.40;;;;;;;;;;5022504;28;20061;-84
2021/07/20 12:42:37;;;;;;;5.53;4.35;;;;;;;;;;5025683;28;20060;-83
2021/07/20 12:45:10;;;;;;;5.45;4.55;;;;;;;;;;5028053;28;20060;-85
2021/07/20 12:47:43;;;;;;;6.82;4.60;;;;;;;;;;5028748;28;20061;-86
2021/07/20 12:50:11;;;;;;;6.15;4.25;;;;;;;;;;5019041;28;20176;-82
2021/07/20 12:52:39;;;;;;;5.38;4.35;;;;;;;;;;5024112;28;20060;-82
2021/07/20 12:55:12;;;;;;;4.82;4.03;;;;;;;;;;5023302;28;20464;-81
2021/07/20 12:57:38;;;;;;;7.97;4.55;;;;;;;;;;5011335;28;20453;-83
2021/07/20 13:00:06;;;;;;;7.32;4.90;;;;;;;;;;5017990;28;20125;-82
2021/07/20 13:02:33;;;;;;;7.10;4.70;;;;;;;;;;4997807;28;20053;-83
2021/07/20 13:04:59;;;;;;;6.15;4.90;;;;;;;;;;5005834;28;20057;-83
2021/07/20 13:07:32;;;;;;;5.15;4.50;;;;;;;;;;5000652;28;20092;-83
2021/07/20 13:09:59;;;;;;;6.10;4.32;;;;;;;;;;5006951;28;20062;-82
2021/07/20 13:12:26;;;;;;;5.55;4.63;;;;;;;;;;5007730;28;20628;-83
2021/07/20 13:14:54;;;;;;;6.35;4.50;;;;;;;;;;5007199;28;20045;-85
2021/07/20 13:17:21;;;;;;;5.85;4.72;;;;;;;;;;5009086;28;20128;-84
2021/07/20 13:19:47;;;;;;;6.20;4.57;;;;;;;;;;5019245;28;20057;-83
2021/07/20 13:22:23;;;;;;;5.57;4.90;;;;;;;;;;5023080;28;20037;-82
2021/07/20 13:24:49;;;;;;;6.88;4.70;;;;;;;;;;5018717;28;20057;-84
2021/07/20 13:27:18;;;;;;;5.78;5.13;;;;;;;;;;5019922;28;20046;-83
2021/07/20 13:29:45;;;;;;;6.82;4.70;;;;;;;;;;5021833;28;20072;-83
2021/07/20 13:32:11;;;;;;;5.95;4.75;;;;;;;;;;5018911;28;20530;-83
2021/07/20 13:34:37;;;;;;;6.22;4.68;;;;;;;;;;5024175;28;20057;-82
2021/07/20 13:37:04;;;;;;;5.95;4.40;;;;;;;;;;5006209;28;20065;-83
2021/07/20 13:39:30;;;;;;;6.28;4.75;;;;;;;;;;5019633;28;20560;-83
2021/07/20 13:41:57;;;;;;;8.15;4.97;;;;;;;;;;5027521;28;20076;-84
2021/07/20 13:44:24;;;;;;;6.13;4.53;;;;;;;;;;5026397;28;20057;-83
2021/07/20 13:46:51;;;;;;;6.43;4.60;;;;;;;;;;5008299;28;20062;-81
2021/07/20 13:49:21;;;;;;;6.05;5.13;;;;;;;;;;5012465;28;20078;-82
2021/07/20 13:51:48;;;;;;;6.63;4.93;;;;;;;;;;5016483;28;20046;-81
2021/07/20 13:54:14;;;;;;;5.60;4.80;;;;;;;;;;5007168;28;20672;-81
2021/07/20 13:56:40;;;;;;;6.07;4.43;;;;;;;;;;4988378;28;20090;-81
2021/07/20 13:59:08;;;;;;;6.45;4.63;;;;;;;;;;5008693;28;20434;-82
2021/07/20 14:01:37;;;;;;;6.88;4.63;;;;;;;;;;5008634;28;20070;-82
2021/07/20 14:04:03;;;;;;;5.05;4.50;;;;;;;;;;5020540;28;20049;-82
2021/07/20 14:06:29;;;;;;;6.55;4.45;;;;;;;;;;5052054;28;20046;-82
2021/07/20 14:08:56;;;;;;;6.28;4.65;;;;;;;;;;5015636;28;20072;-88
2021/07/20 14:11:22;;;;;;;5.38;4.80;;;;;;;;;;4998703;28;20054;-83
2021/07/20 14:13:49;;;;;;;6.82;4.50;;;;;;;;;;5023711;28;20499;-83
2021/07/20 14:16:16;;;;;;;5.50;4.35;;;;;;;;;;5023333;28;20068;-83
2021/07/20 14:18:45;;;;;;;6.40;4.75;;;;;;;;;;5025134;28;20045;-82
2021/07/20 14:21:21;;;;;;;6.63;4.70;;;;;;;;;;5024973;28;20061;-82
2021/07/20 14:23:47;;;;;;;5.72;4.40;;;;;;;;;;5024033;28;20080;-83
2021/07/20 14:26:14;;;;;;;5.43;4.40;;;;;;;;;;5027364;28;20045;-82
2021/07/20 14:28:41;;;;;;;4.75;4.25;;;;;;;;;;5026457;28;20092;-83
2021/07/20 14:31:07;;;;;;;5.57;4.10;;;;;;;;;;5027108;28;20053;-83
2021/07/20 14:33:34;;;;;;;5.43;4.32;;;;;;;;;;5026017;28;20041;-84
2021/07/20 14:36:02;;;;;;;5.32;4.53;;;;;;;;;;5046924;28;20052;-88
2021/07/20 14:38:36;;;;;;;5.57;4.45;;;;;;;;;;5028738;28;20064;-82
2021/07/20 14:41:15;;;;;;;4.82;4.07;;;;;;;;;;5008514;28;20049;-83
2021/07/20 14:43:42;;;;;;;5.03;4.32;;;;;;;;;;5026199;28;20053;-82
2021/07/20 14:46:13;;;;;;;6.65;4.30;;;;;;;;;;5026467;28;20553;-82
2021/07/20 14:48:49;;;;;;;4.97;4.00;;;;;;;;;;5027022;28;20049;-82
2021/07/20 14:51:16;;;;;;;5.50;4.50;;;;;;;;;;5026208;28;20495;-83
2021/07/20 14:53:52;;;;;;;5.45;4.07;;;;;;;;;;5027202;28;20069;-83
2021/07/20 14:56:19;;;;;;;4.80;4.25;;;;;;;;;;5014658;28;20675;-84